createdAt,value
2019-01-05T00:03:02.216Z,0.38
2019-01-05T00:06:09.792Z,0.34
2019-01-05T00:09:17.115Z,0.37
2019-01-05T00:18:15.090Z,0.30
2019-01-05T00:21:23.006Z,0.27
2019-01-05T00:27:39.617Z,0.39
2019-01-05T00:30:48.110Z,0.38
2019-01-05T00:33:56.586Z,0.31
2019-01-05T00:37:05.078Z,0.27
2019-01-05T00:40:17.057Z,0.24
2019-01-05T00:58:21.799Z,0.35
2019-01-05T01:01:09.644Z,0.35
2019-01-05T01:03:57.479Z,0.36
2019-01-05T01:07:04.535Z,0.36
2019-01-05T01:09:52.348Z,0.37
2019-01-05T01:12:40.139Z,0.35
2019-01-05T01:15:27.953Z,0.34
2019-01-05T01:18:36.442Z,0.35
2019-01-05T01:21:44.924Z,0.34
2019-01-05T01:28:01.538Z,0.38
2019-01-05T01:36:38.074Z,0.46
2019-01-05T01:39:46.550Z,0.39
2019-01-05T01:42:54.975Z,0.40
2019-01-05T01:46:03.828Z,0.52
2019-01-05T01:48:51.612Z,0.44
2019-01-05T01:52:00.418Z,0.46
2019-01-05T01:58:17.098Z,0.43
2019-01-05T02:01:24.128Z,0.40
2019-01-05T02:04:32.567Z,0.42
2019-01-05T02:07:41.050Z,0.45
2019-01-05T02:10:49.477Z,0.41
2019-01-05T02:13:57.969Z,0.41
2019-01-05T02:17:06.409Z,0.42
2019-01-05T02:20:14.895Z,0.46
2019-01-05T02:23:42.611Z,0.48
2019-01-05T02:27:08.958Z,0.46
2019-01-05T02:30:17.547Z,0.45
2019-01-05T02:33:43.842Z,0.49
2019-01-05T02:37:10.223Z,0.60
2019-01-05T02:40:36.517Z,0.50
2019-01-05T02:43:45.025Z,0.54
2019-01-05T02:47:11.273Z,0.48
2019-01-05T03:03:30.242Z,0.43
2019-01-05T03:06:38.803Z,0.44
2019-01-05T03:09:47.306Z,0.42
2019-01-05T03:13:13.590Z,0.40
2019-01-05T03:16:39.876Z,0.44
2019-01-05T03:19:48.638Z,0.43
2019-01-05T03:22:57.333Z,0.45
2019-01-05T03:26:23.605Z,0.44
2019-01-05T03:29:49.883Z,0.44
2019-01-05T03:33:16.176Z,0.43
2019-01-05T03:36:24.724Z,0.45
2019-01-05T03:39:33.540Z,0.42
2019-01-05T03:42:42.122Z,0.39
2019-01-05T03:45:50.562Z,0.32
2019-01-05T03:48:59.101Z,0.32
2019-01-05T03:52:07.602Z,0.32
2019-01-05T03:55:33.848Z,0.30
2019-01-05T03:59:00.195Z,0.30
2019-01-05T04:02:26.504Z,0.26
2019-01-05T04:05:52.812Z,0.33
2019-01-05T04:09:01.394Z,0.32
2019-01-05T04:12:27.687Z,0.27
2019-01-05T04:15:53.958Z,0.25
2019-01-05T04:19:20.287Z,0.30
2019-01-05T04:22:28.833Z,0.30
2019-01-05T04:25:37.403Z,0.32
2019-01-05T04:29:03.677Z,0.28
2019-01-05T04:32:12.226Z,0.33
2019-01-05T04:35:38.523Z,0.37
2019-01-05T04:42:25.205Z,0.27
2019-01-05T04:45:51.500Z,0.26
2019-01-05T04:48:59.987Z,0.28
2019-01-05T04:52:26.239Z,0.29
2019-01-05T04:55:52.537Z,0.28
2019-01-05T04:59:01.298Z,0.27
2019-01-05T05:02:09.804Z,0.27
2019-01-05T05:05:18.307Z,0.30
2019-01-05T05:08:27.114Z,0.27
2019-01-05T05:11:53.364Z,0.27
2019-01-05T05:15:19.682Z,0.27
2019-01-05T05:18:28.136Z,0.30
2019-01-05T05:21:36.709Z,0.25
2019-01-05T05:24:48.241Z,0.24
2019-01-05T05:27:56.730Z,0.27
2019-01-05T05:31:22.978Z,0.28
2019-01-05T05:37:50.543Z,0.30
2019-01-05T05:41:16.833Z,0.32
2019-01-05T05:44:25.688Z,0.28
2019-01-05T05:47:52.000Z,0.31
2019-01-05T05:51:00.448Z,0.30
2019-01-05T05:54:09.331Z,0.27
2019-01-05T05:57:35.642Z,0.25
2019-01-05T06:00:44.181Z,0.24
2019-01-05T06:07:09.457Z,0.28
2019-01-05T06:10:17.955Z,0.22
2019-01-05T06:13:26.462Z,0.21
2019-01-05T06:16:35.062Z,0.23
2019-01-05T06:19:43.545Z,0.22
2019-01-05T06:22:51.999Z,0.28
2019-01-05T06:26:00.496Z,0.23
2019-01-05T06:29:26.833Z,0.27
2019-01-05T06:36:06.015Z,0.31
2019-01-05T06:39:32.307Z,0.25
2019-01-05T06:42:41.119Z,0.26
2019-01-05T06:46:07.384Z,0.26
2019-01-05T06:49:33.723Z,0.24
2019-01-05T06:52:59.980Z,0.22
2019-01-05T06:56:08.534Z,0.23
2019-01-05T06:59:34.833Z,0.23
2019-01-05T07:02:43.376Z,0.26
2019-01-05T07:06:09.661Z,0.28
2019-01-05T07:09:35.960Z,0.31
2019-01-05T07:13:02.223Z,0.33
2019-01-05T07:16:28.533Z,0.24
2019-01-05T07:19:37.355Z,0.26
2019-01-05T07:26:34.069Z,0.27
2019-01-05T07:30:00.367Z,0.30
2019-01-05T07:33:26.664Z,0.26
2019-01-05T07:36:52.979Z,0.33
2019-01-05T07:40:19.277Z,0.30
2019-01-05T07:43:28.042Z,0.28
2019-01-05T07:50:11.606Z,0.34
2019-01-05T07:53:20.452Z,0.33
2019-01-05T07:56:29.278Z,0.40
2019-01-05T07:59:55.572Z,0.39
2019-01-05T08:03:21.965Z,0.41
2019-01-05T08:06:30.853Z,0.37
2019-01-05T08:12:56.224Z,0.40
2019-01-05T08:16:24.164Z,0.34
2019-01-05T08:19:32.627Z,0.46
2019-01-05T08:22:41.386Z,0.40
2019-01-05T08:26:07.725Z,0.42
2019-01-05T08:29:34.092Z,0.35
2019-01-05T08:32:42.593Z,0.37
2019-01-05T08:35:51.151Z,0.39
2019-01-05T08:38:59.637Z,0.41
2019-01-05T08:42:25.982Z,0.44
2019-01-05T08:45:35.242Z,0.43
2019-01-05T08:49:01.550Z,0.41
2019-01-05T08:52:10.094Z,0.40
2019-01-05T08:55:18.582Z,0.36
2019-01-05T08:58:45.099Z,0.37
2019-01-05T09:02:11.999Z,0.41
2019-01-05T09:08:51.602Z,0.43
2019-01-05T09:12:00.350Z,0.40
2019-01-05T09:15:09.392Z,0.41
2019-01-05T09:18:35.847Z,0.42
2019-01-05T09:21:45.067Z,0.42
2019-01-05T09:25:11.643Z,0.44
2019-01-05T09:28:23.459Z,0.42
2019-01-05T09:31:31.397Z,0.44
2019-01-05T09:34:41.499Z,0.39
2019-01-05T09:37:52.111Z,0.44
2019-01-05T09:41:02.936Z,0.45
2019-01-05T09:44:29.677Z,0.47
2019-01-05T09:47:56.287Z,0.46
2019-01-05T09:51:23.437Z,0.39
2019-01-05T09:54:50.144Z,0.43
2019-01-05T09:58:17.195Z,0.38
2019-01-05T10:01:26.079Z,0.43
2019-01-05T10:04:35.344Z,0.43
2019-01-05T10:08:03.300Z,0.47
2019-01-05T10:11:11.887Z,0.49
2019-01-05T10:14:20.413Z,0.48
2019-01-05T10:17:28.861Z,0.44
2019-01-05T10:20:55.303Z,0.48
2019-01-05T10:24:03.819Z,0.57
2019-01-05T10:27:30.071Z,0.53
2019-01-05T10:30:56.404Z,0.52
2019-01-05T10:34:22.688Z,0.49
2019-01-05T10:37:49.175Z,0.56
2019-01-05T10:44:28.370Z,0.60
2019-01-05T10:47:54.619Z,0.59
2019-01-05T10:51:03.456Z,0.62
2019-01-05T10:54:11.901Z,0.57
2019-01-05T11:00:38.251Z,0.60
2019-01-05T11:03:47.292Z,0.57
2019-01-05T11:10:30.719Z,0.53
2019-01-05T11:13:57.343Z,0.53
2019-01-05T11:17:23.646Z,0.56
2019-01-05T11:20:50.372Z,0.56
2019-01-05T11:31:07.630Z,0.65
2019-01-05T11:34:17.073Z,0.61
2019-01-05T11:37:45.092Z,0.63
2019-01-05T11:41:11.385Z,0.70
2019-01-05T11:44:37.709Z,0.65
2019-01-05T11:47:46.524Z,0.66
2019-01-05T11:51:12.776Z,0.74
2019-01-05T11:54:39.127Z,0.72
2019-01-05T11:57:47.628Z,0.72
2019-01-05T12:01:13.920Z,0.65
2019-01-05T12:04:22.412Z,0.70
2019-01-05T12:07:48.719Z,0.70
2019-01-05T12:10:57.207Z,0.68
2019-01-05T12:14:23.662Z,0.74
2019-01-05T12:17:49.971Z,0.72
2019-01-05T12:24:32.867Z,0.72
2019-01-05T12:27:59.187Z,0.71
2019-01-05T12:31:07.638Z,0.72
2019-01-05T12:34:33.943Z,0.74
2019-01-05T12:37:42.483Z,0.69
2019-01-05T12:41:08.782Z,0.72
2019-01-05T12:44:17.293Z,0.73
2019-01-05T12:47:43.577Z,0.78
2019-01-05T12:50:52.344Z,0.75
2019-01-05T12:54:01.550Z,0.74
2019-01-05T12:57:30.142Z,0.83
2019-01-05T13:00:39.273Z,0.80
2019-01-05T13:04:07.657Z,0.93
2019-01-05T13:07:34.003Z,0.93
2019-01-05T13:11:00.305Z,0.87
2019-01-05T13:14:09.067Z,0.92
2019-01-05T13:17:35.354Z,0.91
2019-01-05T13:20:43.850Z,0.96
2019-01-05T13:23:52.436Z,0.97
2019-01-05T13:27:18.947Z,0.98
2019-01-05T13:34:05.354Z,0.99
2019-01-05T13:37:14.132Z,1.01
2019-01-05T13:40:40.660Z,1.09
2019-01-05T13:44:07.694Z,1.01
2019-01-05T13:47:16.591Z,1.13
2019-01-05T13:50:42.946Z,1.05
2019-01-05T13:53:51.517Z,1.14
2019-01-05T13:56:59.407Z,1.11
2019-01-05T14:02:41.723Z,1.12
2019-01-05T14:05:48.759Z,1.07
2019-01-05T14:08:36.780Z,1.08
2019-01-05T14:14:19.757Z,1.15
2019-01-05T14:17:26.735Z,1.10
2019-01-05T14:20:15.887Z,1.12
2019-01-05T14:23:22.935Z,1.11
2019-01-05T14:26:30.015Z,1.16
2019-01-05T14:29:37.057Z,1.17
2019-01-05T14:32:45.012Z,1.13
2019-01-05T14:35:34.194Z,1.12
2019-01-05T14:38:41.172Z,1.20
2019-01-05T14:41:48.706Z,1.27
2019-01-05T14:44:56.252Z,1.31
2019-01-05T14:48:03.676Z,1.24
2019-01-05T14:51:10.701Z,1.25
2019-01-05T14:53:58.528Z,1.21
2019-01-05T14:57:06.822Z,1.26
2019-01-05T14:59:56.273Z,1.32
2019-01-05T15:02:46.391Z,1.30
2019-01-05T15:08:30.931Z,1.36
2019-01-05T15:11:39.571Z,1.37
2019-01-05T15:20:53.964Z,1.28
2019-01-05T15:26:56.422Z,1.32
2019-01-05T15:30:03.532Z,1.32
2019-01-05T15:33:12.093Z,1.36
2019-01-05T15:36:19.133Z,1.41
2019-01-05T15:39:26.102Z,1.42
2019-01-05T15:42:13.973Z,1.42
2019-01-05T15:45:21.048Z,1.48
2019-01-05T15:51:03.676Z,1.41
2019-01-05T15:54:12.272Z,1.48
2019-01-05T15:57:19.330Z,1.45
2019-01-05T16:00:29.819Z,1.52
2019-01-05T16:03:19.252Z,1.52
2019-01-05T16:12:01.395Z,1.51
2019-01-05T16:15:10.202Z,1.57
2019-01-05T16:18:17.295Z,1.56
2019-01-05T16:21:25.830Z,1.53
2019-01-05T16:24:33.666Z,1.59
2019-01-05T16:30:05.226Z,1.65
2019-01-05T16:33:13.730Z,1.56
2019-01-05T16:36:20.935Z,1.63
2019-01-05T16:42:17.409Z,1.70
2019-01-05T16:48:08.601Z,1.70
2019-01-05T16:51:23.461Z,1.70
2019-01-05T16:54:12.832Z,1.67
2019-01-05T16:59:55.429Z,1.70
2019-01-05T17:03:02.459Z,1.63
2019-01-05T17:05:50.376Z,1.74
2019-01-05T17:14:22.269Z,1.77
2019-01-05T17:17:29.273Z,1.74
2019-01-05T17:20:36.394Z,1.81
2019-01-05T17:26:22.335Z,1.78
2019-01-05T17:29:10.201Z,1.81
2019-01-05T17:32:17.416Z,1.81
2019-01-05T17:40:48.853Z,1.86
2019-01-05T17:43:56.007Z,1.92
2019-01-05T17:47:04.545Z,1.92
2019-01-05T17:50:11.703Z,1.93
2019-01-05T17:53:18.692Z,1.88
2019-01-05T17:56:27.209Z,1.89
2019-01-05T17:59:35.711Z,1.88
2019-01-05T18:02:42.921Z,1.89
2019-01-05T18:05:30.758Z,1.93
2019-01-05T18:08:20.185Z,1.97
2019-01-05T18:11:09.843Z,1.97
2019-01-05T18:14:16.823Z,1.96
2019-01-05T18:17:25.347Z,1.99
2019-01-05T18:20:34.155Z,2.01
2019-01-05T18:23:41.264Z,2.02
2019-01-05T18:26:48.311Z,2.03
2019-01-05T18:29:55.419Z,1.99
2019-01-05T18:33:02.516Z,1.99
2019-01-05T18:35:50.312Z,2.04
2019-01-05T18:38:57.368Z,2.05
2019-01-05T18:42:04.498Z,2.06
2019-01-05T18:44:52.337Z,2.17
2019-01-05T18:47:59.456Z,2.14
2019-01-05T18:53:43.706Z,2.14
2019-01-05T19:02:42.182Z,2.14
2019-01-05T19:09:00.429Z,2.20
2019-01-05T19:12:10.269Z,2.22
2019-01-05T19:15:20.575Z,2.14
2019-01-05T19:18:09.677Z,2.14
2019-01-05T19:21:19.832Z,2.24
2019-01-05T19:32:59.912Z,2.34
2019-01-05T19:36:08.464Z,2.23
2019-01-05T19:39:18.266Z,2.27
2019-01-05T19:42:07.767Z,2.30
2019-01-05T19:45:14.887Z,2.33
2019-01-05T19:48:21.881Z,2.38
2019-01-05T19:51:28.967Z,2.32
2019-01-05T19:54:37.534Z,2.26
2019-01-05T19:57:45.557Z,2.28
2019-01-05T20:00:55.855Z,2.39
2019-01-05T20:03:43.665Z,2.33
2019-01-05T20:06:50.766Z,2.39
2019-01-05T20:09:57.898Z,2.38
2019-01-05T20:13:04.928Z,2.34
2019-01-05T20:16:12.123Z,2.40
2019-01-05T20:19:19.171Z,2.36
2019-01-05T20:22:26.271Z,2.41
2019-01-05T20:25:14.145Z,2.51
2019-01-05T20:28:22.648Z,2.45
2019-01-05T20:31:10.865Z,2.40
2019-01-05T20:37:17.528Z,2.52
2019-01-05T20:40:26.114Z,2.46
2019-01-05T20:49:36.293Z,2.48
2019-01-05T20:52:43.408Z,2.46
2019-01-05T20:55:50.468Z,2.47
2019-01-05T21:02:05.922Z,2.55
2019-01-05T21:05:12.962Z,2.47
2019-01-05T21:08:00.897Z,2.57
2019-01-05T21:16:36.902Z,2.57
2019-01-05T21:19:44.033Z,2.56
2019-01-05T21:28:19.070Z,2.53
2019-01-05T21:34:09.998Z,2.60
2019-01-05T21:37:17.322Z,2.55
2019-01-05T21:40:26.251Z,2.62
2019-01-05T21:43:15.916Z,2.64
2019-01-05T21:46:03.717Z,2.52
2019-01-05T21:49:11.015Z,2.56
2019-01-05T21:52:18.100Z,2.54
2019-01-05T21:55:25.080Z,2.57
2019-01-05T21:58:13.055Z,2.58
2019-01-05T22:01:20.090Z,2.57
2019-01-05T22:04:27.134Z,2.57
2019-01-05T22:07:35.626Z,2.54
2019-01-05T22:10:44.204Z,2.57
2019-01-05T22:13:51.188Z,2.59
2019-01-05T22:16:39.044Z,2.60
2019-01-05T22:19:26.864Z,2.53
2019-01-05T22:22:35.372Z,2.46
2019-01-05T22:25:23.165Z,2.50
2019-01-05T22:28:11.211Z,2.55
2019-01-05T22:34:07.461Z,2.46
2019-01-05T22:37:14.515Z,2.44
2019-01-05T22:40:21.500Z,2.47
2019-01-05T22:51:53.340Z,2.55
2019-01-05T22:57:30.385Z,2.44
2019-01-05T23:00:18.180Z,2.48
2019-01-05T23:03:25.213Z,2.50
2019-01-05T23:06:32.222Z,2.50
2019-01-05T23:09:20.065Z,2.53
2019-01-05T23:12:07.978Z,2.49
2019-01-05T23:14:55.838Z,2.48
2019-01-05T23:23:27.559Z,2.48
2019-01-05T23:26:15.357Z,2.50
2019-01-05T23:29:22.374Z,2.43
2019-01-05T23:32:10.212Z,2.50
2019-01-05T23:34:58.007Z,2.44
2019-01-05T23:38:05.228Z,2.45
2019-01-05T23:41:12.269Z,2.41
2019-01-05T23:46:49.324Z,2.41
2019-01-05T23:49:37.151Z,2.34
2019-01-05T23:52:44.127Z,2.45
2019-01-05T23:55:32.029Z,2.41
2019-01-05T23:58:58.279Z,2.41
